createdAt,value
2019-04-24T00:05:38.576Z,82.13
2019-04-24T00:12:34.903Z,82.01
2019-04-24T00:19:01.770Z,82.23
2019-04-24T00:22:14.830Z,81.82
2019-04-24T00:25:23.451Z,81.82
2019-04-24T00:29:18.977Z,81.92
2019-04-24T00:35:20.169Z,81.77
2019-04-24T00:38:37.319Z,81.77
2019-04-24T00:45:13.458Z,82.86
2019-04-24T00:48:32.176Z,83.17
2019-04-24T00:57:42.606Z,83.13
2019-04-24T01:01:20.288Z,82.69
2019-04-24T01:07:42.819Z,82.15
2019-04-24T01:11:08.775Z,81.69
2019-04-24T01:14:22.923Z,81.51
2019-04-24T01:17:32.284Z,81.51
2019-04-24T01:24:01.846Z,81.36
2019-04-24T01:27:15.338Z,81.18
2019-04-24T01:37:30.297Z,80.77
2019-04-24T01:41:07.730Z,80.55
2019-04-24T01:44:11.606Z,80.68
2019-04-24T01:50:29.625Z,80.82
2019-04-24T01:57:37.500Z,81.00
2019-04-24T02:00:58.420Z,81.20
2019-04-24T02:03:51.445Z,81.31
2019-04-24T02:08:04.480Z,81.63
2019-04-24T02:14:15.320Z,81.89
2019-04-24T02:17:28.941Z,82.06
2019-04-24T02:27:02.572Z,82.24
2019-04-24T02:30:20.346Z,82.57
2019-04-24T02:33:52.491Z,82.94
2019-04-24T02:40:12.754Z,82.83
2019-04-24T02:46:36.875Z,83.08
2019-04-24T02:49:58.397Z,83.21
2019-04-24T02:55:56.079Z,83.19
2019-04-24T03:02:34.002Z,82.88
2019-04-24T03:05:10.367Z,83.09
2019-04-24T03:11:59.741Z,83.03
2019-04-24T03:15:22.405Z,83.66
2019-04-24T03:18:17.488Z,83.22
2019-04-24T03:22:11.902Z,83.01
2019-04-24T03:48:49.501Z,82.50
2019-04-24T03:55:35.599Z,81.75
2019-04-24T03:59:03.809Z,81.98
2019-04-24T04:02:33.858Z,82.00
2019-04-24T04:05:22.704Z,82.00
2019-04-24T04:12:02.852Z,82.95
2019-04-24T04:15:10.324Z,82.65
2019-04-24T04:18:34.543Z,82.71
2019-04-24T04:25:01.662Z,83.03
2019-04-24T04:34:52.126Z,83.37
2019-04-24T04:41:35.142Z,84.08
2019-04-24T04:47:39.726Z,83.24
2019-04-24T04:55:29.012Z,82.60
2019-04-24T04:57:47.430Z,82.35
2019-04-24T05:01:12.322Z,81.34
2019-04-24T05:08:01.086Z,80.95
2019-04-24T05:10:55.518Z,80.79
2019-04-24T05:20:22.804Z,79.89
2019-04-24T05:30:01.113Z,78.80
2019-04-24T05:36:25.809Z,78.61
2019-04-24T05:52:21.568Z,77.52
2019-04-24T05:58:32.258Z,77.01
2019-04-24T06:02:10.003Z,77.26
2019-04-24T06:11:39.469Z,77.00
2019-04-24T06:18:44.944Z,76.97
2019-04-24T06:21:36.207Z,78.28
2019-04-24T06:24:35.185Z,79.50
2019-04-24T06:27:52.241Z,79.87
2019-04-24T06:31:02.626Z,79.28
2019-04-24T06:34:02.469Z,80.28
2019-04-24T06:37:25.899Z,81.02
2019-04-24T06:41:28.312Z,81.51
2019-04-24T06:44:57.705Z,81.51
2019-04-24T06:50:55.949Z,80.32
2019-04-24T07:01:27.052Z,80.26
2019-04-24T07:07:42.825Z,79.29
2019-04-24T07:11:37.110Z,79.42
2019-04-24T07:18:46.962Z,79.53
2019-04-24T07:22:19.244Z,79.32
2019-04-24T07:25:49.155Z,78.24
2019-04-24T07:28:44.259Z,78.34
2019-04-24T07:32:03.918Z,78.10
2019-04-24T07:35:54.956Z,77.61
2019-04-24T07:38:40.834Z,77.61
2019-04-24T07:45:11.421Z,77.03
2019-04-24T07:48:11.385Z,76.50
2019-04-24T07:51:31.069Z,76.51
2019-04-24T07:57:39.440Z,76.55
2019-04-24T08:00:49.577Z,76.03
2019-04-24T08:10:45.061Z,76.25
2019-04-24T08:16:47.553Z,75.73
2019-04-24T08:20:12.804Z,75.95
2019-04-24T08:22:55.469Z,74.73
2019-04-24T08:29:10.381Z,74.60
2019-04-24T08:32:32.758Z,74.57
2019-04-24T08:39:32.597Z,75.37
2019-04-24T08:42:46.065Z,75.13
2019-04-24T08:45:55.037Z,75.71
2019-04-24T08:49:18.148Z,75.12
2019-04-24T08:52:27.347Z,75.54
2019-04-24T08:55:21.709Z,75.68
2019-04-24T08:58:42.253Z,75.68
2019-04-24T09:05:30.484Z,74.92
2019-04-24T09:08:42.125Z,75.00
2019-04-24T09:11:59.699Z,74.55
2019-04-24T09:14:59.695Z,74.16
2019-04-24T09:18:13.905Z,74.16
2019-04-24T09:21:14.632Z,73.56
2019-04-24T09:25:14.253Z,72.13
2019-04-24T09:28:44.738Z,71.81
2019-04-24T09:31:53.532Z,71.22
2019-04-24T09:34:51.371Z,72.12
2019-04-24T09:41:39.296Z,72.16
2019-04-24T09:44:41.628Z,71.15
2019-04-24T09:47:58.791Z,70.93
2019-04-24T09:51:02.094Z,71.07
2019-04-24T09:54:28.241Z,70.65
2019-04-24T09:57:34.611Z,71.19
2019-04-24T10:04:17.234Z,71.03
2019-04-24T10:07:21.382Z,74.19
2019-04-24T10:10:26.062Z,75.45
2019-04-24T10:13:29.774Z,76.82
2019-04-24T10:16:55.341Z,77.85
2019-04-24T10:23:04.781Z,77.60
2019-04-24T10:29:50.733Z,78.61
2019-04-24T10:33:12.596Z,78.52
2019-04-24T10:36:30.906Z,79.18
2019-04-24T10:43:30.834Z,79.75
2019-04-24T10:47:09.748Z,81.22
2019-04-24T10:57:41.733Z,80.38
2019-04-24T10:59:54.808Z,78.59
2019-04-24T11:03:17.336Z,78.59
2019-04-24T11:06:43.340Z,79.41
2019-04-24T11:13:24.007Z,77.73
2019-04-24T11:20:47.707Z,76.75
2019-04-24T11:23:42.338Z,76.25
2019-04-24T11:30:14.027Z,75.54
2019-04-24T11:37:24.233Z,76.85
2019-04-24T11:40:36.872Z,76.77
2019-04-24T11:43:30.814Z,76.75
2019-04-24T11:50:54.682Z,75.46
2019-04-24T11:53:43.381Z,75.25
2019-04-24T11:59:45.152Z,75.05
2019-04-24T12:03:32.843Z,74.11
2019-04-24T12:06:37.968Z,74.26
2019-04-24T12:09:59.512Z,74.44
2019-04-24T12:19:58.684Z,73.77
2019-04-24T12:23:01.972Z,72.77
2019-04-24T12:26:10.979Z,72.84
2019-04-24T12:29:07.261Z,72.57
2019-04-24T12:32:46.512Z,72.57
2019-04-24T12:35:54.394Z,72.97
2019-04-24T12:39:04.128Z,72.50
2019-04-24T12:42:20.001Z,72.44
2019-04-24T12:45:18.767Z,72.46
2019-04-24T12:48:30.031Z,72.58
2019-04-24T12:51:32.374Z,72.82
2019-04-24T12:58:18.453Z,71.75
2019-04-24T13:01:28.341Z,71.80
2019-04-24T13:04:52.304Z,72.01
2019-04-24T13:08:00.125Z,71.24
2019-04-24T13:14:29.785Z,69.34
2019-04-24T13:17:50.693Z,69.51
2019-04-24T13:20:25.176Z,67.81
2019-04-24T13:23:43.252Z,66.87
2019-04-24T13:27:16.955Z,68.53
2019-04-24T13:30:26.299Z,66.19
2019-04-24T13:36:41.482Z,65.58
2019-04-24T13:39:46.409Z,65.41
2019-04-24T13:42:58.623Z,66.88
2019-04-24T13:46:03.410Z,67.47
2019-04-24T13:49:21.703Z,68.46
2019-04-24T13:55:28.158Z,69.12
2019-04-24T13:58:32.881Z,69.51
2019-04-24T14:04:47.097Z,69.59
2019-04-24T14:08:02.884Z,69.83
2019-04-24T14:14:07.943Z,70.06
2019-04-24T14:17:09.580Z,70.38
2019-04-24T14:20:36.528Z,70.18
2019-04-24T14:23:57.054Z,70.17
2019-04-24T14:26:53.950Z,70.35
2019-04-24T14:30:01.353Z,69.94
2019-04-24T14:36:17.144Z,71.00
2019-04-24T14:42:26.665Z,70.99
2019-04-24T14:45:50.321Z,72.07
2019-04-24T14:48:42.644Z,72.09
2019-04-24T14:52:03.202Z,72.76
2019-04-24T14:58:10.400Z,72.76
2019-04-24T15:01:36.226Z,72.84
2019-04-24T15:04:28.964Z,71.62
2019-04-24T15:07:42.144Z,70.87
2019-04-24T15:20:27.336Z,70.52
2019-04-24T15:39:13.577Z,66.84
2019-04-24T15:45:24.404Z,66.73
2019-04-24T15:48:33.647Z,66.46
2019-04-24T15:51:30.135Z,67.42
2019-04-24T15:54:20.443Z,66.62
2019-04-24T15:57:25.548Z,67.47
2019-04-24T16:01:05.262Z,67.18
2019-04-24T16:04:08.974Z,67.36
2019-04-24T16:07:07.161Z,66.67
2019-04-24T16:10:23.676Z,66.90
2019-04-24T16:13:34.353Z,67.75
2019-04-24T16:17:08.036Z,67.39
2019-04-24T16:23:27.682Z,66.87
2019-04-24T16:26:46.308Z,67.61
2019-04-24T16:29:40.856Z,68.66
2019-04-24T16:32:58.424Z,69.60
2019-04-24T16:46:40.663Z,68.94
2019-04-24T16:49:53.685Z,67.96
2019-04-24T16:52:22.131Z,67.54
2019-04-24T16:55:36.010Z,67.26
2019-04-24T17:05:16.570Z,65.25
2019-04-24T17:11:18.846Z,65.37
2019-04-24T17:14:45.359Z,65.29
2019-04-24T17:18:06.927Z,65.32
2019-04-24T17:36:27.397Z,65.40
2019-04-24T17:39:31.439Z,66.20
2019-04-24T17:42:51.995Z,66.89
2019-04-24T17:46:11.045Z,66.94
2019-04-24T17:52:40.243Z,67.96
2019-04-24T18:01:15.334Z,68.94
2019-04-24T18:04:21.170Z,68.93
2019-04-24T18:07:25.782Z,69.32
2019-04-24T18:10:33.889Z,69.43
2019-04-24T18:13:39.158Z,69.90
2019-04-24T18:16:47.225Z,70.28
2019-04-24T18:19:51.867Z,71.50
2019-04-24T18:22:57.297Z,71.50
2019-04-24T18:26:27.158Z,71.83
2019-04-24T18:29:32.003Z,72.09
2019-04-24T18:32:36.873Z,73.08
2019-04-24T18:35:42.566Z,73.74
2019-04-24T18:38:54.329Z,74.06
2019-04-24T18:41:59.330Z,74.68
2019-04-24T18:45:08.389Z,75.32
2019-04-24T18:48:13.655Z,75.71
2019-04-24T18:51:21.600Z,76.27
2019-04-24T18:54:29.507Z,76.27
2019-04-24T18:57:40.545Z,76.83
2019-04-24T19:01:22.095Z,77.19
2019-04-24T19:04:26.950Z,77.46
2019-04-24T19:07:31.632Z,77.66
2019-04-24T19:10:36.757Z,77.66
2019-04-24T19:13:41.495Z,78.20
2019-04-24T19:16:46.307Z,78.20
2019-04-24T19:19:52.898Z,78.46
2019-04-24T19:23:08.043Z,78.46
2019-04-24T19:26:56.013Z,78.10
2019-04-24T19:30:02.003Z,78.24
2019-04-24T19:33:09.320Z,78.26
2019-04-24T19:36:14.794Z,78.48
2019-04-24T19:39:19.745Z,78.60
2019-04-24T19:42:27.138Z,78.72
2019-04-24T19:45:33.244Z,78.86
2019-04-24T19:48:37.777Z,78.81
2019-04-24T19:51:44.447Z,78.85
2019-04-24T19:54:59.392Z,78.66
2019-04-24T19:58:05.890Z,78.64
2019-04-24T20:01:13.300Z,78.57
2019-04-24T20:04:17.480Z,78.76
2019-04-24T20:07:22.128Z,78.30
2019-04-24T20:11:02.453Z,78.39
2019-04-24T20:14:09.017Z,78.39
2019-04-24T20:17:14.508Z,78.32
2019-04-24T20:20:19.212Z,78.32
2019-04-24T20:23:34.501Z,78.38
2019-04-24T20:26:35.284Z,78.96
2019-04-24T20:29:42.220Z,78.96
2019-04-24T20:32:46.614Z,78.84
2019-04-24T20:35:50.913Z,78.82
2019-04-24T20:38:55.237Z,79.13
2019-04-24T20:41:59.580Z,79.00
2019-04-24T20:45:03.932Z,79.07
2019-04-24T20:48:08.862Z,79.00
2019-04-24T20:51:13.199Z,78.95
2019-04-24T20:54:18.498Z,78.37
2019-04-24T20:57:22.902Z,78.70
2019-04-24T21:00:31.531Z,78.62
2019-04-24T21:03:36.002Z,78.90
2019-04-24T21:06:46.068Z,80.70
2019-04-24T21:09:55.038Z,80.70
2019-04-24T21:12:59.348Z,81.25
2019-04-24T21:16:03.702Z,81.75
2019-04-24T21:19:08.028Z,82.59
2019-04-24T21:22:12.355Z,82.59
2019-04-24T21:25:16.683Z,83.13
2019-04-24T21:28:22.650Z,83.42
2019-04-24T21:31:27.059Z,83.75
2019-04-24T21:34:31.408Z,84.13
2019-04-24T21:37:35.734Z,84.35
2019-04-24T21:40:40.044Z,84.44
2019-04-24T21:43:44.466Z,84.59
2019-04-24T21:46:48.797Z,84.95
2019-04-24T21:49:53.112Z,84.92
2019-04-24T21:52:57.443Z,85.05
2019-04-24T21:56:01.753Z,85.36
2019-04-24T21:59:07.131Z,85.32
2019-04-24T22:02:27.646Z,85.38
2019-04-24T22:05:39.135Z,85.64
2019-04-24T22:08:43.457Z,85.65
2019-04-24T22:11:48.071Z,85.66
2019-04-24T22:14:52.401Z,85.81
2019-04-24T22:17:56.790Z,85.74
2019-04-24T22:21:04.925Z,84.97
2019-04-24T22:24:31.636Z,85.07
2019-04-24T22:27:38.933Z,84.79
2019-04-24T22:31:05.365Z,84.53
2019-04-24T22:34:14.141Z,84.53
2019-04-24T22:37:18.482Z,84.34
2019-04-24T22:40:33.074Z,85.11
2019-04-24T22:43:38.103Z,85.11
2019-04-24T22:46:42.386Z,84.44
2019-04-24T22:49:46.709Z,84.39
2019-04-24T22:52:51.684Z,84.59
2019-04-24T22:55:56.045Z,84.59
2019-04-24T22:59:01.043Z,85.77
2019-04-24T23:02:06.756Z,85.40
2019-04-24T23:05:11.632Z,85.20
2019-04-24T23:08:16.036Z,84.63
2019-04-24T23:11:22.059Z,84.08
2019-04-24T23:14:26.899Z,83.21
2019-04-24T23:17:31.834Z,82.97
2019-04-24T23:20:46.387Z,82.64
2019-04-24T23:24:08.054Z,83.08
2019-04-24T23:27:17.198Z,83.68
2019-04-24T23:30:49.336Z,84.60
2019-04-24T23:33:55.362Z,84.60
2019-04-24T23:36:59.856Z,84.91
2019-04-24T23:40:05.991Z,85.49
2019-04-24T23:43:10.487Z,85.68
2019-04-24T23:46:14.820Z,85.95
2019-04-24T23:49:19.454Z,85.73
2019-04-24T23:52:23.806Z,85.92
2019-04-24T23:55:28.122Z,86.01
2019-04-24T23:58:32.442Z,86.38
